sensor_id;sensor_type;location;lat;lon;timestamp;P1;durP1;ratioP1;P2;durP2;ratioP2
72053;SDS011;59918;51.280;7.950;2022-12-04T00:01:16;33.38;;;15.23;;
72053;SDS011;59918;51.280;7.950;2022-12-04T00:03:52;37.17;;;16.60;;
72053;SDS011;59918;51.280;7.950;2022-12-04T00:06:24;34.80;;;15.10;;
72053;SDS011;59918;51.280;7.950;2022-12-04T00:08:50;33.38;;;16.15;;
72053;SDS011;59918;51.280;7.950;2022-12-04T00:11:18;32.28;;;15.15;;
72053;SDS011;59918;51.280;7.950;2022-12-04T00:13:48;33.42;;;15.40;;
72053;SDS011;59918;51.280;7.950;2022-12-04T00:16:14;35.53;;;15.32;;
72053;SDS011;59918;51.280;7.950;2022-12-04T00:18:44;33.28;;;15.18;;
72053;SDS011;59918;51.280;7.950;2022-12-04T00:21:10;32.30;;;13.77;;
72053;SDS011;59918;51.280;7.950;2022-12-04T00:23:37;34.75;;;14.68;;
72053;SDS011;59918;51.280;7.950;2022-12-04T00:26:04;33.33;;;14.30;;
72053;SDS011;59918;51.280;7.950;2022-12-04T00:28:35;30.35;;;13.50;;
72053;SDS011;59918;51.280;7.950;2022-12-04T00:31:04;36.72;;;14.10;;
72053;SDS011;59918;51.280;7.950;2022-12-04T00:33:33;32.75;;;13.93;;
72053;SDS011;59918;51.280;7.950;2022-12-04T00:35:59;31.17;;;14.13;;
72053;SDS011;59918;51.280;7.950;2022-12-04T00:38:26;32.65;;;14.35;;
72053;SDS011;59918;51.280;7.950;2022-12-04T00:40:52;29.08;;;13.18;;
72053;SDS011;59918;51.280;7.950;2022-12-04T00:43:23;33.38;;;13.88;;
72053;SDS011;59918;51.280;7.950;2022-12-04T00:45:48;31.58;;;13.30;;
72053;SDS011;59918;51.280;7.950;2022-12-04T00:48:14;30.40;;;13.52;;
72053;SDS011;59918;51.280;7.950;2022-12-04T00:50:40;27.48;;;13.25;;
72053;SDS011;59918;51.280;7.950;2022-12-04T00:53:14;32.55;;;14.48;;
72053;SDS011;59918;51.280;7.950;2022-12-04T00:55:40;30.00;;;13.93;;
72053;SDS011;59918;51.280;7.950;2022-12-04T00:58:09;32.67;;;13.95;;
72053;SDS011;59918;51.280;7.950;2022-12-04T01:00:36;35.30;;;14.50;;
72053;SDS011;59918;51.280;7.950;2022-12-04T01:03:03;30.58;;;13.65;;
72053;SDS011;59918;51.280;7.950;2022-12-04T01:05:29;27.85;;;13.07;;
72053;SDS011;59918;51.280;7.950;2022-12-04T01:07:57;31.88;;;13.35;;
72053;SDS011;59918;51.280;7.950;2022-12-04T01:10:23;26.90;;;13.98;;
72053;SDS011;59918;51.280;7.950;2022-12-04T01:12:48;30.42;;;14.32;;
72053;SDS011;59918;51.280;7.950;2022-12-04T01:15:14;31.65;;;13.07;;
72053;SDS011;59918;51.280;7.950;2022-12-04T01:17:41;24.83;;;12.18;;
72053;SDS011;59918;51.280;7.950;2022-12-04T01:20:11;30.13;;;12.38;;
72053;SDS011;59918;51.280;7.950;2022-12-04T01:22:37;27.10;;;12.02;;
72053;SDS011;59918;51.280;7.950;2022-12-04T01:25:02;25.77;;;11.85;;
72053;SDS011;59918;51.280;7.950;2022-12-04T01:27:29;26.13;;;12.10;;
72053;SDS011;59918;51.280;7.950;2022-12-04T01:30:00;30.50;;;13.30;;
72053;SDS011;59918;51.280;7.950;2022-12-04T01:32:25;27.40;;;12.45;;
72053;SDS011;59918;51.280;7.950;2022-12-04T01:34:50;24.20;;;11.80;;
72053;SDS011;59918;51.280;7.950;2022-12-04T01:37:18;27.02;;;12.15;;
72053;SDS011;59918;51.280;7.950;2022-12-04T01:39:46;25.70;;;11.68;;
72053;SDS011;59918;51.280;7.950;2022-12-04T01:42:12;25.38;;;11.68;;
72053;SDS011;59918;51.280;7.950;2022-12-04T01:44:37;29.58;;;12.32;;
72053;SDS011;59918;51.280;7.950;2022-12-04T01:47:13;25.35;;;10.50;;
72053;SDS011;59918;51.280;7.950;2022-12-04T01:49:40;27.60;;;11.45;;
72053;SDS011;59918;51.280;7.950;2022-12-04T01:54:43;22.42;;;9.90;;
72053;SDS011;59918;51.280;7.950;2022-12-04T01:57:24;22.25;;;10.98;;
72053;SDS011;59918;51.280;7.950;2022-12-04T01:59:52;18.92;;;9.15;;
72053;SDS011;59918;51.280;7.950;2022-12-04T02:02:20;19.58;;;8.38;;
72053;SDS011;59918;51.280;7.950;2022-12-04T02:05:17;18.00;;;8.95;;
72053;SDS011;59918;51.280;7.950;2022-12-04T02:07:48;20.17;;;8.77;;
72053;SDS011;59918;51.280;7.950;2022-12-04T02:10:16;18.17;;;8.73;;
72053;SDS011;59918;51.280;7.950;2022-12-04T02:16:03;21.15;;;10.10;;
72053;SDS011;59918;51.280;7.950;2022-12-04T02:18:39;22.20;;;9.93;;
72053;SDS011;59918;51.280;7.950;2022-12-04T02:21:18;22.38;;;9.65;;
72053;SDS011;59918;51.280;7.950;2022-12-04T02:23:58;17.75;;;9.23;;
72053;SDS011;59918;51.280;7.950;2022-12-04T02:26:37;17.70;;;9.00;;
72053;SDS011;59918;51.280;7.950;2022-12-04T02:34:46;18.52;;;9.15;;
72053;SDS011;59918;51.280;7.950;2022-12-04T02:37:20;16.00;;;8.52;;
72053;SDS011;59918;51.280;7.950;2022-12-04T02:40:08;18.55;;;9.10;;
72053;SDS011;59918;51.280;7.950;2022-12-04T02:43:15;18.23;;;8.77;;
72053;SDS011;59918;51.280;7.950;2022-12-04T02:45:54;19.98;;;8.75;;
72053;SDS011;59918;51.280;7.950;2022-12-04T02:48:31;18.55;;;8.40;;
72053;SDS011;59918;51.280;7.950;2022-12-04T02:51:02;16.98;;;9.13;;
72053;SDS011;59918;51.280;7.950;2022-12-04T02:53:31;13.68;;;7.38;;
72053;SDS011;59918;51.280;7.950;2022-12-04T02:56:05;13.52;;;8.13;;
72053;SDS011;59918;51.280;7.950;2022-12-04T02:58:45;17.33;;;8.40;;
72053;SDS011;59918;51.280;7.950;2022-12-04T03:01:19;14.95;;;7.90;;
72053;SDS011;59918;51.280;7.950;2022-12-04T03:03:56;11.98;;;7.40;;
72053;SDS011;59918;51.280;7.950;2022-12-04T03:06:26;11.80;;;6.85;;
72053;SDS011;59918;51.280;7.950;2022-12-04T03:09:02;11.23;;;7.50;;
72053;SDS011;59918;51.280;7.950;2022-12-04T03:11:36;14.88;;;7.30;;
72053;SDS011;59918;51.280;7.950;2022-12-04T03:14:07;13.02;;;7.20;;
72053;SDS011;59918;51.280;7.950;2022-12-04T03:16:57;11.05;;;7.13;;
72053;SDS011;59918;51.280;7.950;2022-12-04T03:19:40;12.07;;;6.80;;
72053;SDS011;59918;51.280;7.950;2022-12-04T03:22:13;10.73;;;6.30;;
72053;SDS011;59918;51.280;7.950;2022-12-04T03:24:43;10.77;;;6.60;;
72053;SDS011;59918;51.280;7.950;2022-12-04T03:30:01;11.20;;;6.18;;
72053;SDS011;59918;51.280;7.950;2022-12-04T03:38:21;9.77;;;6.32;;
72053;SDS011;59918;51.280;7.950;2022-12-04T03:41:03;9.00;;;6.18;;
72053;SDS011;59918;51.280;7.950;2022-12-04T03:43:43;11.50;;;6.43;;
72053;SDS011;59918;51.280;7.950;2022-12-04T03:48:42;9.75;;;6.07;;
72053;SDS011;59918;51.280;7.950;2022-12-04T03:53:54;10.52;;;7.15;;
72053;SDS011;59918;51.280;7.950;2022-12-04T03:56:50;11.43;;;6.30;;
72053;SDS011;59918;51.280;7.950;2022-12-04T03:59:41;9.23;;;5.65;;
72053;SDS011;59918;51.280;7.950;2022-12-04T04:02:14;15.73;;;5.93;;
72053;SDS011;59918;51.280;7.950;2022-12-04T04:04:41;8.77;;;5.38;;
72053;SDS011;59918;51.280;7.950;2022-12-04T04:10:13;10.52;;;6.28;;
72053;SDS011;59918;51.280;7.950;2022-12-04T04:12:43;12.25;;;7.13;;
72053;SDS011;59918;51.280;7.950;2022-12-04T04:15:20;9.45;;;5.88;;
72053;SDS011;59918;51.280;7.950;2022-12-04T04:17:48;12.65;;;7.05;;
72053;SDS011;59918;51.280;7.950;2022-12-04T04:20:15;11.20;;;7.53;;
72053;SDS011;59918;51.280;7.950;2022-12-04T04:25:17;10.95;;;6.88;;
72053;SDS011;59918;51.280;7.950;2022-12-04T04:27:54;14.15;;;7.43;;
72053;SDS011;59918;51.280;7.950;2022-12-04T04:30:27;13.27;;;7.18;;
72053;SDS011;59918;51.280;7.950;2022-12-04T04:33:07;11.77;;;7.00;;
72053;SDS011;59918;51.280;7.950;2022-12-04T04:35:51;11.98;;;7.15;;
72053;SDS011;59918;51.280;7.950;2022-12-04T04:41:18;13.70;;;8.68;;
72053;SDS011;59918;51.280;7.950;2022-12-04T04:44:11;10.90;;;7.43;;
72053;SDS011;59918;51.280;7.950;2022-12-04T04:46:57;11.18;;;7.80;;
72053;SDS011;59918;51.280;7.950;2022-12-04T04:49:30;11.93;;;6.60;;
72053;SDS011;59918;51.280;7.950;2022-12-04T04:52:04;16.33;;;7.88;;
72053;SDS011;59918;51.280;7.950;2022-12-04T04:54:29;12.27;;;7.60;;
72053;SDS011;59918;51.280;7.950;2022-12-04T04:57:00;13.35;;;8.07;;
72053;SDS011;59918;51.280;7.950;2022-12-04T04:59:26;13.43;;;7.43;;
72053;SDS011;59918;51.280;7.950;2022-12-04T05:01:51;13.05;;;7.68;;
72053;SDS011;59918;51.280;7.950;2022-12-04T05:04:16;11.27;;;7.43;;
72053;SDS011;59918;51.280;7.950;2022-12-04T05:06:41;12.50;;;6.95;;
72053;SDS011;59918;51.280;7.950;2022-12-04T05:09:07;14.35;;;7.65;;
72053;SDS011;59918;51.280;7.950;2022-12-04T05:11:32;13.55;;;7.30;;
72053;SDS011;59918;51.280;7.950;2022-12-04T05:14:03;12.35;;;7.53;;
72053;SDS011;59918;51.280;7.950;2022-12-04T05:16:29;13.50;;;7.70;;
72053;SDS011;59918;51.280;7.950;2022-12-04T05:18:57;14.02;;;6.65;;
72053;SDS011;59918;51.280;7.950;2022-12-04T05:21:25;13.43;;;7.00;;
72053;SDS011;59918;51.280;7.950;2022-12-04T05:23:50;11.02;;;7.35;;
72053;SDS011;59918;51.280;7.950;2022-12-04T05:26:16;12.25;;;7.50;;
72053;SDS011;59918;51.280;7.950;2022-12-04T05:28:41;15.18;;;8.23;;
72053;SDS011;59918;51.280;7.950;2022-12-04T05:31:07;13.52;;;8.43;;
72053;SDS011;59918;51.280;7.950;2022-12-04T05:33:32;14.60;;;7.65;;
72053;SDS011;59918;51.280;7.950;2022-12-04T05:36:05;11.93;;;7.25;;
72053;SDS011;59918;51.280;7.950;2022-12-04T05:38:32;13.20;;;7.88;;
72053;SDS011;59918;51.280;7.950;2022-12-04T05:41:02;10.60;;;6.57;;
72053;SDS011;59918;51.280;7.950;2022-12-04T05:43:29;13.47;;;7.77;;
72053;SDS011;59918;51.280;7.950;2022-12-04T05:45:59;14.07;;;7.55;;
72053;SDS011;59918;51.280;7.950;2022-12-04T05:48:31;14.23;;;7.25;;
72053;SDS011;59918;51.280;7.950;2022-12-04T05:51:08;14.85;;;7.60;;
72053;SDS011;59918;51.280;7.950;2022-12-04T05:53:37;14.63;;;7.32;;
72053;SDS011;59918;51.280;7.950;2022-12-04T05:56:03;12.93;;;7.25;;
72053;SDS011;59918;51.280;7.950;2022-12-04T05:58:29;13.75;;;7.35;;
72053;SDS011;59918;51.280;7.950;2022-12-04T06:00:55;15.60;;;8.38;;
72053;SDS011;59918;51.280;7.950;2022-12-04T06:03:20;13.80;;;7.43;;
72053;SDS011;59918;51.280;7.950;2022-12-04T06:05:49;15.48;;;8.52;;
72053;SDS011;59918;51.280;7.950;2022-12-04T06:08:14;16.98;;;8.38;;
72053;SDS011;59918;51.280;7.950;2022-12-04T06:10:39;13.43;;;6.70;;
72053;SDS011;59918;51.280;7.950;2022-12-04T06:13:05;12.35;;;7.28;;
72053;SDS011;59918;51.280;7.950;2022-12-04T06:15:31;14.02;;;7.97;;
72053;SDS011;59918;51.280;7.950;2022-12-04T06:18:03;13.15;;;7.78;;
72053;SDS011;59918;51.280;7.950;2022-12-04T06:20:29;14.00;;;8.15;;
72053;SDS011;59918;51.280;7.950;2022-12-04T06:22:54;13.80;;;8.82;;
72053;SDS011;59918;51.280;7.950;2022-12-04T06:25:19;11.82;;;7.93;;
72053;SDS011;59918;51.280;7.950;2022-12-04T06:27:52;18.52;;;9.50;;
72053;SDS011;59918;51.280;7.950;2022-12-04T06:30:19;13.70;;;8.32;;
72053;SDS011;59918;51.280;7.950;2022-12-04T06:32:45;15.90;;;8.13;;
72053;SDS011;59918;51.280;7.950;2022-12-04T06:35:13;13.70;;;8.60;;
72053;SDS011;59918;51.280;7.950;2022-12-04T06:37:38;18.63;;;9.88;;
72053;SDS011;59918;51.280;7.950;2022-12-04T06:40:04;17.80;;;9.75;;
72053;SDS011;59918;51.280;7.950;2022-12-04T06:42:30;17.25;;;8.52;;
72053;SDS011;59918;51.280;7.950;2022-12-04T06:44:55;14.25;;;7.82;;
72053;SDS011;59918;51.280;7.950;2022-12-04T06:47:20;15.48;;;8.15;;
72053;SDS011;59918;51.280;7.950;2022-12-04T06:49:49;14.98;;;8.48;;
72053;SDS011;59918;51.280;7.950;2022-12-04T06:52:14;13.38;;;8.50;;
72053;SDS011;59918;51.280;7.950;2022-12-04T06:54:39;17.52;;;8.30;;
72053;SDS011;59918;51.280;7.950;2022-12-04T06:57:05;15.25;;;8.60;;
72053;SDS011;59918;51.280;7.950;2022-12-04T06:59:30;13.50;;;8.00;;
72053;SDS011;59918;51.280;7.950;2022-12-04T07:01:55;13.05;;;7.85;;
72053;SDS011;59918;51.280;7.950;2022-12-04T07:04:20;17.20;;;8.85;;
72053;SDS011;59918;51.280;7.950;2022-12-04T07:06:49;14.05;;;8.68;;
72053;SDS011;59918;51.280;7.950;2022-12-04T07:09:15;15.60;;;8.40;;
72053;SDS011;59918;51.280;7.950;2022-12-04T07:11:41;18.02;;;8.95;;
72053;SDS011;59918;51.280;7.950;2022-12-04T07:14:07;14.95;;;7.45;;
72053;SDS011;59918;51.280;7.950;2022-12-04T07:16:33;11.00;;;7.18;;
72053;SDS011;59918;51.280;7.950;2022-12-04T07:19:02;10.88;;;7.45;;
72053;SDS011;59918;51.280;7.950;2022-12-04T07:21:28;14.00;;;7.38;;
72053;SDS011;59918;51.280;7.950;2022-12-04T07:23:56;15.85;;;8.27;;
72053;SDS011;59918;51.280;7.950;2022-12-04T07:26:27;15.07;;;7.50;;
72053;SDS011;59918;51.280;7.950;2022-12-04T07:28:53;13.32;;;7.93;;
72053;SDS011;59918;51.280;7.950;2022-12-04T07:31:20;11.60;;;7.20;;
72053;SDS011;59918;51.280;7.950;2022-12-04T07:33:52;14.70;;;8.13;;
72053;SDS011;59918;51.280;7.950;2022-12-04T07:36:18;13.23;;;7.70;;
72053;SDS011;59918;51.280;7.950;2022-12-04T07:38:45;12.55;;;7.68;;
72053;SDS011;59918;51.280;7.950;2022-12-04T07:41:19;12.50;;;7.85;;
72053;SDS011;59918;51.280;7.950;2022-12-04T07:43:44;16.40;;;9.02;;
72053;SDS011;59918;51.280;7.950;2022-12-04T07:46:19;16.20;;;7.90;;
72053;SDS011;59918;51.280;7.950;2022-12-04T07:48:50;12.00;;;6.80;;
72053;SDS011;59918;51.280;7.950;2022-12-04T07:51:16;12.15;;;7.30;;
72053;SDS011;59918;51.280;7.950;2022-12-04T07:53:43;12.90;;;7.20;;
72053;SDS011;59918;51.280;7.950;2022-12-04T07:56:09;14.35;;;8.68;;
72053;SDS011;59918;51.280;7.950;2022-12-04T07:58:41;11.27;;;6.78;;
72053;SDS011;59918;51.280;7.950;2022-12-04T08:01:10;10.95;;;7.13;;
72053;SDS011;59918;51.280;7.950;2022-12-04T08:03:46;21.70;;;11.90;;
72053;SDS011;59918;51.280;7.950;2022-12-04T08:06:21;15.38;;;8.32;;
72053;SDS011;59918;51.280;7.950;2022-12-04T08:08:51;15.05;;;9.70;;
72053;SDS011;59918;51.280;7.950;2022-12-04T08:11:18;15.70;;;9.15;;
72053;SDS011;59918;51.280;7.950;2022-12-04T08:13:45;14.18;;;8.35;;
72053;SDS011;59918;51.280;7.950;2022-12-04T08:16:11;14.32;;;7.80;;
72053;SDS011;59918;51.280;7.950;2022-12-04T08:18:42;14.18;;;9.07;;
72053;SDS011;59918;51.280;7.950;2022-12-04T08:21:09;16.38;;;8.73;;
72053;SDS011;59918;51.280;7.950;2022-12-04T08:26:11;11.30;;;7.30;;
72053;SDS011;59918;51.280;7.950;2022-12-04T08:28:44;14.73;;;8.75;;
72053;SDS011;59918;51.280;7.950;2022-12-04T08:31:18;11.30;;;6.75;;
72053;SDS011;59918;51.280;7.950;2022-12-04T08:33:46;12.80;;;7.40;;
72053;SDS011;59918;51.280;7.950;2022-12-04T08:36:17;12.13;;;7.00;;
72053;SDS011;59918;51.280;7.950;2022-12-04T08:38:44;12.82;;;7.07;;
72053;SDS011;59918;51.280;7.950;2022-12-04T08:41:10;11.02;;;7.13;;
72053;SDS011;59918;51.280;7.950;2022-12-04T08:43:40;13.60;;;7.60;;
72053;SDS011;59918;51.280;7.950;2022-12-04T08:46:10;11.30;;;7.47;;
72053;SDS011;59918;51.280;7.950;2022-12-04T08:48:40;11.90;;;7.00;;
72053;SDS011;59918;51.280;7.950;2022-12-04T08:51:06;14.48;;;7.55;;
72053;SDS011;59918;51.280;7.950;2022-12-04T08:53:42;11.02;;;7.03;;
72053;SDS011;59918;51.280;7.950;2022-12-04T08:56:07;10.88;;;6.82;;
72053;SDS011;59918;51.280;7.950;2022-12-04T08:58:33;13.73;;;7.22;;
72053;SDS011;59918;51.280;7.950;2022-12-04T09:03:40;8.65;;;5.78;;
72053;SDS011;59918;51.280;7.950;2022-12-04T09:06:07;10.15;;;6.65;;
72053;SDS011;59918;51.280;7.950;2022-12-04T09:08:34;15.00;;;8.45;;
72053;SDS011;59918;51.280;7.950;2022-12-04T09:11:07;11.10;;;6.60;;
72053;SDS011;59918;51.280;7.950;2022-12-04T09:13:40;16.13;;;9.32;;
72053;SDS011;59918;51.280;7.950;2022-12-04T09:16:07;15.38;;;9.35;;
72053;SDS011;59918;51.280;7.950;2022-12-04T09:18:39;17.58;;;10.18;;
72053;SDS011;59918;51.280;7.950;2022-12-04T09:21:06;13.73;;;7.97;;
72053;SDS011;59918;51.280;7.950;2022-12-04T09:23:33;13.02;;;7.60;;
72053;SDS011;59918;51.280;7.950;2022-12-04T09:26:13;13.25;;;7.63;;
72053;SDS011;59918;51.280;7.950;2022-12-04T09:28:47;16.20;;;8.80;;
72053;SDS011;59918;51.280;7.950;2022-12-04T09:31:17;15.02;;;8.85;;
72053;SDS011;59918;51.280;7.950;2022-12-04T09:33:43;16.75;;;8.63;;
72053;SDS011;59918;51.280;7.950;2022-12-04T09:36:08;17.92;;;9.35;;
72053;SDS011;59918;51.280;7.950;2022-12-04T09:38:34;16.15;;;8.75;;
72053;SDS011;59918;51.280;7.950;2022-12-04T09:46:47;17.48;;;9.05;;
72053;SDS011;59918;51.280;7.950;2022-12-04T09:49:48;40.10;;;19.35;;
72053;SDS011;59918;51.280;7.950;2022-12-04T09:57:59;21.48;;;11.38;;
72053;SDS011;59918;51.280;7.950;2022-12-04T10:00:30;19.88;;;11.45;;
72053;SDS011;59918;51.280;7.950;2022-12-04T10:03:05;19.02;;;10.68;;
72053;SDS011;59918;51.280;7.950;2022-12-04T10:08:13;18.13;;;9.20;;
72053;SDS011;59918;51.280;7.950;2022-12-04T10:11:02;18.63;;;10.02;;
72053;SDS011;59918;51.280;7.950;2022-12-04T10:16:22;16.98;;;10.00;;
72053;SDS011;59918;51.280;7.950;2022-12-04T10:24:33;20.80;;;10.57;;
72053;SDS011;59918;51.280;7.950;2022-12-04T10:29:57;21.17;;;11.27;;
72053;SDS011;59918;51.280;7.950;2022-12-04T10:32:42;22.23;;;12.30;;
72053;SDS011;59918;51.280;7.950;2022-12-04T10:35:19;25.55;;;11.60;;
72053;SDS011;59918;51.280;7.950;2022-12-04T10:37:48;22.50;;;12.10;;
72053;SDS011;59918;51.280;7.950;2022-12-04T10:40:22;21.27;;;10.63;;
72053;SDS011;59918;51.280;7.950;2022-12-04T10:43:01;20.10;;;12.00;;
72053;SDS011;59918;51.280;7.950;2022-12-04T10:45:40;26.77;;;12.52;;
72053;SDS011;59918;51.280;7.950;2022-12-04T10:48:05;20.50;;;10.48;;
72053;SDS011;59918;51.280;7.950;2022-12-04T10:50:39;22.83;;;10.98;;
72053;SDS011;59918;51.280;7.950;2022-12-04T10:53:04;27.13;;;13.20;;
72053;SDS011;59918;51.280;7.950;2022-12-04T10:55:32;25.10;;;12.35;;
72053;SDS011;59918;51.280;7.950;2022-12-04T10:58:13;25.48;;;12.25;;
72053;SDS011;59918;51.280;7.950;2022-12-04T11:00:42;29.13;;;13.95;;
72053;SDS011;59918;51.280;7.950;2022-12-04T11:03:18;24.23;;;12.75;;
72053;SDS011;59918;51.280;7.950;2022-12-04T11:05:58;30.70;;;13.30;;
72053;SDS011;59918;51.280;7.950;2022-12-04T11:08:36;27.70;;;12.68;;
72053;SDS011;59918;51.280;7.950;2022-12-04T11:11:11;29.02;;;14.00;;
72053;SDS011;59918;51.280;7.950;2022-12-04T11:13:41;25.48;;;13.77;;
72053;SDS011;59918;51.280;7.950;2022-12-04T11:16:08;26.75;;;12.98;;
72053;SDS011;59918;51.280;7.950;2022-12-04T11:18:57;23.10;;;12.50;;
72053;SDS011;59918;51.280;7.950;2022-12-04T11:21:25;28.33;;;13.05;;
72053;SDS011;59918;51.280;7.950;2022-12-04T11:23:55;24.73;;;12.38;;
72053;SDS011;59918;51.280;7.950;2022-12-04T11:26:34;23.58;;;11.93;;
72053;SDS011;59918;51.280;7.950;2022-12-04T11:29:04;23.40;;;10.50;;
72053;SDS011;59918;51.280;7.950;2022-12-04T11:31:31;25.60;;;11.73;;
72053;SDS011;59918;51.280;7.950;2022-12-04T11:33:59;23.75;;;11.73;;
72053;SDS011;59918;51.280;7.950;2022-12-04T11:36:36;28.08;;;12.93;;
72053;SDS011;59918;51.280;7.950;2022-12-04T11:41:35;22.80;;;11.10;;
72053;SDS011;59918;51.280;7.950;2022-12-04T11:44:00;21.60;;;12.40;;
72053;SDS011;59918;51.280;7.950;2022-12-04T11:46:29;17.55;;;10.43;;
72053;SDS011;59918;51.280;7.950;2022-12-04T11:48:56;19.45;;;11.38;;
72053;SDS011;59918;51.280;7.950;2022-12-04T12:00:08;24.70;;;11.68;;
72053;SDS011;59918;51.280;7.950;2022-12-04T12:02:47;63.58;;;30.23;;
72053;SDS011;59918;51.280;7.950;2022-12-04T12:10:39;24.05;;;12.85;;
72053;SDS011;59918;51.280;7.950;2022-12-04T12:16:53;23.00;;;11.02;;
72053;SDS011;59918;51.280;7.950;2022-12-04T12:36:53;20.75;;;11.82;;
72053;SDS011;59918;51.280;7.950;2022-12-04T12:39:22;21.02;;;11.82;;
72053;SDS011;59918;51.280;7.950;2022-12-04T12:41:53;27.33;;;13.52;;
72053;SDS011;59918;51.280;7.950;2022-12-04T12:44:25;22.50;;;12.30;;
72053;SDS011;59918;51.280;7.950;2022-12-04T12:46:59;19.85;;;11.75;;
72053;SDS011;59918;51.280;7.950;2022-12-04T12:50:34;25.23;;;12.52;;
72053;SDS011;59918;51.280;7.950;2022-12-04T13:00:38;24.67;;;14.02;;
72053;SDS011;59918;51.280;7.950;2022-12-04T13:05:58;23.58;;;12.25;;
72053;SDS011;59918;51.280;7.950;2022-12-04T13:11:56;27.73;;;12.85;;
72053;SDS011;59918;51.280;7.950;2022-12-04T13:14:24;27.77;;;13.68;;
72053;SDS011;59918;51.280;7.950;2022-12-04T13:17:12;26.65;;;13.35;;
72053;SDS011;59918;51.280;7.950;2022-12-04T13:19:49;25.40;;;13.98;;
72053;SDS011;59918;51.280;7.950;2022-12-04T13:22:33;26.80;;;15.18;;
72053;SDS011;59918;51.280;7.950;2022-12-04T13:36:38;26.38;;;12.80;;
72053;SDS011;59918;51.280;7.950;2022-12-04T13:42:20;20.88;;;10.95;;
72053;SDS011;59918;51.280;7.950;2022-12-04T13:45:11;25.52;;;12.82;;
72053;SDS011;59918;51.280;7.950;2022-12-04T13:47:55;19.10;;;11.00;;
72053;SDS011;59918;51.280;7.950;2022-12-04T13:50:35;21.42;;;12.35;;
72053;SDS011;59918;51.280;7.950;2022-12-04T13:53:28;24.67;;;11.52;;
72053;SDS011;59918;51.280;7.950;2022-12-04T13:56:00;17.25;;;10.25;;
72053;SDS011;59918;51.280;7.950;2022-12-04T13:58:32;23.13;;;11.85;;
72053;SDS011;59918;51.280;7.950;2022-12-04T14:01:19;22.15;;;11.02;;
72053;SDS011;59918;51.280;7.950;2022-12-04T14:03:49;22.73;;;11.95;;
72053;SDS011;59918;51.280;7.950;2022-12-04T14:06:23;20.17;;;11.57;;
72053;SDS011;59918;51.280;7.950;2022-12-04T14:08:58;20.83;;;11.57;;
72053;SDS011;59918;51.280;7.950;2022-12-04T14:11:31;23.67;;;11.98;;
72053;SDS011;59918;51.280;7.950;2022-12-04T14:14:14;23.08;;;11.73;;
72053;SDS011;59918;51.280;7.950;2022-12-04T14:16:48;19.55;;;11.73;;
72053;SDS011;59918;51.280;7.950;2022-12-04T14:19:33;24.42;;;12.90;;
72053;SDS011;59918;51.280;7.950;2022-12-04T14:22:01;26.58;;;13.00;;
72053;SDS011;59918;51.280;7.950;2022-12-04T14:24:49;32.67;;;16.77;;
72053;SDS011;59918;51.280;7.950;2022-12-04T14:30:25;26.33;;;13.38;;
72053;SDS011;59918;51.280;7.950;2022-12-04T14:33:20;25.95;;;15.43;;
72053;SDS011;59918;51.280;7.950;2022-12-04T14:35:49;28.55;;;14.25;;
72053;SDS011;59918;51.280;7.950;2022-12-04T14:38:31;26.10;;;12.90;;
72053;SDS011;59918;51.280;7.950;2022-12-04T14:40:59;24.23;;;12.75;;
72053;SDS011;59918;51.280;7.950;2022-12-04T14:43:26;27.77;;;14.65;;
72053;SDS011;59918;51.280;7.950;2022-12-04T14:51:57;24.40;;;12.57;;
72053;SDS011;59918;51.280;7.950;2022-12-04T14:54:27;22.23;;;11.40;;
72053;SDS011;59918;51.280;7.950;2022-12-04T14:59:53;24.55;;;12.75;;
72053;SDS011;59918;51.280;7.950;2022-12-04T15:02:21;29.42;;;16.42;;
72053;SDS011;59918;51.280;7.950;2022-12-04T15:04:53;37.50;;;19.63;;
72053;SDS011;59918;51.280;7.950;2022-12-04T15:07:22;30.75;;;16.15;;
72053;SDS011;59918;51.280;7.950;2022-12-04T15:09:54;31.63;;;15.70;;
72053;SDS011;59918;51.280;7.950;2022-12-04T15:12:23;30.92;;;16.13;;
72053;SDS011;59918;51.280;7.950;2022-12-04T15:14:56;28.08;;;15.38;;
72053;SDS011;59918;51.280;7.950;2022-12-04T15:17:23;26.42;;;13.65;;
72053;SDS011;59918;51.280;7.950;2022-12-04T15:19:48;29.27;;;15.80;;
72053;SDS011;59918;51.280;7.950;2022-12-04T15:22:22;30.95;;;15.85;;
72053;SDS011;59918;51.280;7.950;2022-12-04T15:24:53;27.30;;;14.50;;
72053;SDS011;59918;51.280;7.950;2022-12-04T15:27:20;30.50;;;14.70;;
72053;SDS011;59918;51.280;7.950;2022-12-04T15:29:49;28.83;;;15.32;;
72053;SDS011;59918;51.280;7.950;2022-12-04T15:32:21;33.88;;;15.85;;
72053;SDS011;59918;51.280;7.950;2022-12-04T15:34:55;30.70;;;14.93;;
72053;SDS011;59918;51.280;7.950;2022-12-04T15:37:33;30.10;;;14.75;;
72053;SDS011;59918;51.280;7.950;2022-12-04T15:40:03;28.13;;;14.00;;
72053;SDS011;59918;51.280;7.950;2022-12-04T15:42:32;29.23;;;14.98;;
72053;SDS011;59918;51.280;7.950;2022-12-04T15:47:26;32.97;;;14.43;;
72053;SDS011;59918;51.280;7.950;2022-12-04T15:52:59;27.85;;;15.25;;
72053;SDS011;59918;51.280;7.950;2022-12-04T15:55:36;30.02;;;14.60;;
72053;SDS011;59918;51.280;7.950;2022-12-04T16:01:02;32.95;;;14.90;;
72053;SDS011;59918;51.280;7.950;2022-12-04T16:03:32;30.02;;;16.70;;
72053;SDS011;59918;51.280;7.950;2022-12-04T16:09:20;35.20;;;15.70;;
72053;SDS011;59918;51.280;7.950;2022-12-04T16:12:01;31.75;;;16.92;;
72053;SDS011;59918;51.280;7.950;2022-12-04T16:14:47;32.10;;;16.15;;
72053;SDS011;59918;51.280;7.950;2022-12-04T16:17:12;26.52;;;14.77;;
72053;SDS011;59918;51.280;7.950;2022-12-04T16:19:44;30.73;;;13.95;;
72053;SDS011;59918;51.280;7.950;2022-12-04T16:22:11;25.55;;;13.75;;
72053;SDS011;59918;51.280;7.950;2022-12-04T16:24:47;24.95;;;13.95;;
72053;SDS011;59918;51.280;7.950;2022-12-04T16:27:15;21.02;;;11.30;;
72053;SDS011;59918;51.280;7.950;2022-12-04T16:29:46;20.25;;;11.23;;
72053;SDS011;59918;51.280;7.950;2022-12-04T16:34:45;20.48;;;11.50;;
72053;SDS011;59918;51.280;7.950;2022-12-04T16:37:12;25.25;;;13.45;;
72053;SDS011;59918;51.280;7.950;2022-12-04T16:39:43;25.38;;;12.27;;
72053;SDS011;59918;51.280;7.950;2022-12-04T16:44:58;25.20;;;13.75;;
72053;SDS011;59918;51.280;7.950;2022-12-04T16:47:23;27.00;;;13.80;;
72053;SDS011;59918;51.280;7.950;2022-12-04T16:49:49;26.13;;;13.65;;
72053;SDS011;59918;51.280;7.950;2022-12-04T16:52:18;25.63;;;13.57;;
72053;SDS011;59918;51.280;7.950;2022-12-04T16:54:45;27.05;;;15.77;;
72053;SDS011;59918;51.280;7.950;2022-12-04T16:57:11;29.42;;;14.82;;
72053;SDS011;59918;51.280;7.950;2022-12-04T16:59:37;30.45;;;15.77;;
72053;SDS011;59918;51.280;7.950;2022-12-04T17:02:12;29.92;;;15.95;;
72053;SDS011;59918;51.280;7.950;2022-12-04T17:04:44;27.50;;;13.63;;
72053;SDS011;59918;51.280;7.950;2022-12-04T17:07:10;25.70;;;14.18;;
72053;SDS011;59918;51.280;7.950;2022-12-04T17:09:36;33.95;;;15.73;;
72053;SDS011;59918;51.280;7.950;2022-12-04T17:12:01;29.90;;;15.38;;
72053;SDS011;59918;51.280;7.950;2022-12-04T17:14:26;28.10;;;14.23;;
72053;SDS011;59918;51.280;7.950;2022-12-04T17:16:55;24.73;;;12.95;;
72053;SDS011;59918;51.280;7.950;2022-12-04T17:19:20;33.70;;;17.85;;
72053;SDS011;59918;51.280;7.950;2022-12-04T17:21:45;29.75;;;14.30;;
72053;SDS011;59918;51.280;7.950;2022-12-04T17:24:10;29.13;;;13.88;;
72053;SDS011;59918;51.280;7.950;2022-12-04T17:26:36;30.85;;;13.85;;
72053;SDS011;59918;51.280;7.950;2022-12-04T17:29:01;30.77;;;13.93;;
72053;SDS011;59918;51.280;7.950;2022-12-04T17:31:27;32.50;;;16.05;;